Flight Track Log - Related Links

Times and Time Zones

All times are in EDT time to prevent confusion due to time zone crossing. See the EJA829P flight status page for this flight to view local times or setup timezone preferences in your user account.


Time Position Orientation Groundspeed Altitude Reporting Facility
EDT Latitude Longitude Course Direction KTS MPH feet Rate Location/Type
Tue 01:51:31 PM 42.0472 -80.2344 176° South 178 205 4,500  Level Cleveland Center
Tue 01:52:33 PM 41.9792 -80.2403 184° South 244 281 8,900 3,774 Climbing Cleveland Center
Tue 01:53:35 PM 41.9042 -80.2383 179° South 281 323 12,300 3,951 Climbing Cleveland Center
Tue 01:54:36 PM 41.8119 -80.2347 178° South 317 365 17,000 4,341 Climbing Cleveland Center
Tue 01:55:38 PM 41.7183 -80.2339 180° South 319 367 21,200 3,242 Climbing Cleveland Center
Tue 01:56:40 PM 41.6267 -80.2289 178° South 334 384 23,700 2,323 Climbing Cleveland Center
Tue 01:57:00 PM 41.5722 -80.2506 176° South  Level FlightAware Approximate
Tue 01:57:42 PM 41.5311 -80.2272 179° South 337 388 26,000  Level Cleveland Center
Tue 01:58:44 PM 41.4281 -80.2256 179° South 364 419 27,300 1,694 Climbing Cleveland Center
Tue 01:59:46 PM 41.3267 -80.2222 179° South 367 422 29,500 2,129 Climbing Cleveland Center
Tue 02:00:48 PM 41.2061 -80.2194 179° South 364 419 31,700 1,645 Climbing Cleveland Center
Tue 02:01:50 PM 41.1033 -80.2178 179° South 365 420 32,900 1,210 Climbing Cleveland Center
Tue 02:02:52 PM 41.0000 -80.2147 179° South 371 427 34,200 1,548 Climbing Cleveland Center
Tue 02:03:54 PM 40.8992 -80.2125 179° South 367 422 36,100 1,597 Climbing Cleveland Center
Tue 02:04:56 PM 40.8025 -80.2172 182° South 340 391 37,500 1,210 Climbing Cleveland Center
Tue 02:05:58 PM 40.7164 -80.2478 195° South 323 372 38,600 726 Climbing Cleveland Center
Tue 02:07:00 PM 40.6303 -80.2758 194° South 323 372 39,000 194 Climbing Cleveland Center
Tue 02:08:02 PM 40.5197 -80.3122 194° South 340 391 39,000  Level Cleveland Center
Tue 02:09:04 PM 40.4250 -80.3447 195° South 351 404 39,000  Level Cleveland Center
Tue 02:10:06 PM 40.3358 -80.3753 195° South 355 409 39,000  Level Cleveland Center
Tue 02:11:08 PM 40.2181 -80.4153 195° South 364 419 39,000  Level Cleveland Center
Tue 02:12:10 PM 40.1192 -80.4481 194° South 366 421 39,000  Level Cleveland Center
Tue 02:13:12 PM 40.0200 -80.4808 194° South 366 421 39,000  Level Cleveland Center
Tue 02:14:14 PM 39.9356 -80.5447 210° Southwest 351 404 39,000 288 Level Cleveland Center
Tue 02:15:17 PM 39.8756 -80.6406 231° Southwest 343 395 39,600 480 Climbing Cleveland Center
Tue 02:16:19 PM 39.8211 -80.7333 233° Southwest 330 380 40,000 194 Climbing Cleveland Center
Tue 02:17:21 PM 39.7536 -80.8450 232° Southwest 328 377 40,000  Level Cleveland Center
Tue 02:18:23 PM 39.6967 -80.9397 232° Southwest 329 379 40,000  Level Cleveland Center
Tue 02:19:25 PM 39.6394 -81.0367 233° Southwest 334 384 40,000  Level Cleveland Center
Tue 02:20:27 PM 39.5797 -81.1322 231° Southwest 339 390 40,000  Level Cleveland Center
Tue 02:21:29 PM 39.5214 -81.2275 232° Southwest 339 390 40,000  Level Cleveland Center
Tue 02:22:31 PM 39.4619 -81.3247 232° Southwest 341 392 40,000  Level Cleveland Center
Tue 02:23:33 PM 39.3961 -81.4356 232° Southwest 346 398 40,000  Level Cleveland Center
Tue 02:24:35 PM 39.3344 -81.5328 231° Southwest 347 399 40,000  Level Cleveland Center
Tue 02:25:38 PM 39.2744 -81.6308 232° Southwest 348 400 40,000  Level Cleveland Center
Tue 02:26:40 PM 39.2136 -81.7306 232° Southwest 351 404 40,000  Level Cleveland Center
Tue 02:27:42 PM 39.1408 -81.8464 231° Southwest 350 403 40,000  Level Cleveland Center
Tue 02:28:44 PM 39.0789 -81.9447 231° Southwest 351 404 40,000  Level Cleveland Center
Tue 02:29:46 PM 39.0178 -82.0431 231° Southwest 351 404 40,000  Level Cleveland Center
Tue 02:30:48 PM 38.9569 -82.1417 232° Southwest 351 404 40,000  Level Cleveland Center
Tue 02:31:50 PM 38.8961 -82.2383 231° Southwest 351 404 40,000  Level Cleveland Center
Tue 02:33:12 PM 38.8075 -82.3797 231° Southwest 349 402 40,000 -294 Level Indianapolis Center
Tue 02:34:13 PM 38.7456 -82.4772 231° Southwest 349 402 39,300 -878 Descending Indianapolis Center
Tue 02:35:15 PM 38.6800 -82.5808 231° Southwest 367 422 38,200 -629 Descending Indianapolis Center
Tue 02:36:17 PM 38.6175 -82.6792 231° Southwest 367 422 38,000 -97 Descending Indianapolis Center
Tue 02:37:19 PM 38.5433 -82.7950 231° Southwest 362 417 38,000  Level Indianapolis Center
Tue 02:38:21 PM 38.4797 -82.8944 231° Southwest 362 417 38,000  Level Indianapolis Center
Tue 02:39:22 PM 38.4153 -82.9947 231° Southwest 362 417 38,000  Level Indianapolis Center
Tue 02:40:24 PM 38.3500 -83.0936 230° Southwest 363 418 38,000  Level Indianapolis Center
Tue 02:41:26 PM 38.2853 -83.1942 231° Southwest 363 418 38,000 -387 Level Indianapolis Center
Tue 02:42:28 PM 38.2119 -83.3089 231° Southwest 363 418 37,200 -484 Descending Indianapolis Center
Tue 02:43:30 PM 38.1486 -83.4061 230° Southwest 362 417 37,000 -98 Descending Indianapolis Center
Tue 02:44:31 PM 38.0856 -83.5022 230° Southwest 359 413 37,000  Level Indianapolis Center
Tue 02:45:33 PM 38.0231 -83.5983 230° Southwest 357 411 37,000 -710 Level Indianapolis Center
Tue 02:47:37 PM 37.9425 -83.8067 244° Southwest 336 387 34,800 -1,290 Descending Indianapolis Center
Tue 02:48:39 PM 37.9153 -83.9422 256° West 337 388 33,000 -1,355 Descending Indianapolis Center
Tue 02:49:41 PM 37.8864 -84.0606 253° West 344 396 32,000 -488 Descending Indianapolis Center
Tue 02:50:42 PM 37.8611 -84.1750 254° West 343 395 32,000  Level Indianapolis Center
Tue 02:51:44 PM 37.8172 -84.2781 242° Southwest 343 395 32,000  Level Indianapolis Center
Tue 02:52:46 PM 37.7422 -84.3614 221° Southwest 355 409 32,000  Level Indianapolis Center
Tue 02:53:48 PM 37.6669 -84.4428 221° Southwest 355 409 32,000  Level Indianapolis Center
Tue 02:54:50 PM 37.5772 -84.5378 220° Southwest 357 411 32,000  Level Indianapolis Center
Tue 02:55:52 PM 37.5011 -84.6183 220° Southwest 357 411 32,000  Level Indianapolis Center
Tue 02:56:53 PM 37.4264 -84.6983 220° Southwest 355 409 32,000 -49 Level Indianapolis Center
Tue 02:57:55 PM 37.3503 -84.7775 220° Southwest 355 409 31,900 -774 Descending Indianapolis Center
Tue 02:58:57 PM 37.2706 -84.8631 221° Southwest 367 422 30,400 -1,452 Descending Indianapolis Center
Tue 02:59:59 PM 37.1864 -84.9500 219° Southwest 386 444 28,900 -1,500 Descending Indianapolis Center
Tue 03:01:01 PM 37.0886 -85.0517 220° Southwest 391 450 27,300 -1,452 Descending Indianapolis Center
Tue 03:02:03 PM 37.0131 -85.1314 220° Southwest 385 443 25,900 -1,258 Descending Indianapolis Center
Tue 03:03:05 PM 36.9331 -85.2147 220° Southwest 378 435 24,700 -1,161 Descending Indianapolis Center
Tue 03:04:07 PM 36.8519 -85.2981 219° Southwest 378 435 23,500 -1,210 Descending Indianapolis Center
Tue 03:05:09 PM 36.7581 -85.3961 220° Southwest 373 429 22,200 -726 Descending Indianapolis Center
Tue 03:06:11 PM 36.7086 -85.4928 237° Southwest 340 391 22,000 -387 Descending Indianapolis Center
Tue 03:07:13 PM 36.6614 -85.5925 239° Southwest 339 390 21,400 -1,561 Descending Indianapolis Center
Tue 03:08:14 PM 36.6147 -85.6889 239° Southwest 329 379 18,800 -2,537 Descending Indianapolis Center
Tue 03:09:16 PM 36.5711 -85.7839 240° Southwest 323 372 16,200 -2,032 Descending Indianapolis Center
Tue 03:10:18 PM 36.5239 -85.8811 239° Southwest 316 364 14,600 -1,548 Descending Indianapolis Center
Tue 03:11:20 PM 36.4797 -85.9744 240° Southwest 312 359 13,000 -1,452 Descending Indianapolis Center
Tue 03:12:22 PM 36.4172 -86.0436 222° Southwest 321 369 11,600 -1,355 Descending Indianapolis Center
Tue 03:13:24 PM 36.3317 -86.0642 191° South 315 362 10,200 -1,659 Descending Indianapolis Center
Tue 03:14:25 PM 36.2428 -86.0883 192° South 287 330 8,200 -1,805 Descending Indianapolis Center
Tue 03:15:27 PM 36.1681 -86.1072 192° South 276 318 6,500 -1,645 Descending Indianapolis Center
Tue 03:16:29 PM 36.0942 -86.1281 193° South 273 314 4,800 -1,258 Descending Indianapolis Center
Tue 03:17:31 PM 36.0189 -86.1469 191° South 273 314 3,900 -353 Descending Indianapolis Center
Tue 03:18:45 PM 35.9333 -86.1667 191° South 257 296 4,000 39 Climbing Nashville TRACON
Tue 03:20:04 PM 35.8475 -86.1925 194° South 240 276 4,000  Level Memphis Center
Tue 03:21:06 PM 35.7947 -86.2342 213° Southwest 226 260 4,000  Level Memphis Center
Tue 03:22:08 PM 35.8142 -86.2853 295° West 196 226 4,000  Level Memphis Center
Tue 03:23:10 PM 35.8542 -86.3236 322° Northwest 186 214 4,000  Level Memphis Center
Tue 03:24:12 PM 35.8900 -86.3706 313° West 185 213 4,000 -242 Level Memphis Center
Tue 03:25:14 PM 35.9325 -86.4269 313° West 188 216 3,500 -484 Descending Memphis Center
Tue 03:26:16 PM 35.9697 -86.4739 314° West 189 217 3,000 -242 Descending Memphis Center
Tue 03:27:18 PM 36.0031 -86.5181 313° West 180 207 3,000  Level Memphis Center
Tue 03:28:20 PM 36.0317 -86.5536 315° West 153 176 3,000 -288 Level Memphis Center
Tue 03:29:23 PM 36.0592 -86.5900 313° West 149 171 2,400 -672 Descending Memphis Center
Tue 03:30:25 PM 36.0867 -86.6247 314° West 143 165 1,600 -677 Descending Memphis Center
Tue 03:31:27 PM 36.1072 -86.6508 314° West 120 138 1,000 -435 Descending Memphis Center
Tue 03:32:29 PM 36.1283 -86.6792 313° West 106 122 700 -290 Descending Memphis Center

Login

Don't have an account? Register now (free) for customized features, flight alerts, and more!